Time;durP1;ratioP1;P1;durP2;ratioP2;P2;SDS_P1;SDS_P2;PMS_P1;PMS_P2;Temp;Humidity;BMP_temperature;BMP_pressure;BME280_temperature;BME280_humidity;BME280_pressure;Samples;Min_cycle;Max_cycle;Signal;HPM_P1;HPM_P2
2022/11/01 00:02:08;;;;;;;7.35;3.65;;;19.90;99.90;;;;;;5092310;28;20859;-32
2022/11/01 00:04:36;;;;;;;8.25;3.75;;;19.90;99.90;;;;;;5086139;28;20313;-31
2022/11/01 00:07:03;;;;;;;6.82;3.70;;;19.90;99.90;;;;;;5085086;28;20199;-32
2022/11/01 00:09:30;;;;;;;7.78;4.25;;;19.90;99.90;;;;;;5087176;28;20195;-32
2022/11/01 00:12:02;;;;;;;9.05;3.85;;;19.90;99.90;;;;;;5082520;28;20297;-32
2022/11/01 00:14:29;;;;;;;6.07;3.70;;;20.00;99.90;;;;;;5083159;28;20206;-32
2022/11/01 00:16:57;;;;;;;8.43;4.30;;;20.00;99.90;;;;;;5087899;28;20859;-33
2022/11/01 00:19:24;;;;;;;5.78;3.90;;;20.00;99.90;;;;;;5088825;28;20243;-32
2022/11/01 00:21:56;;;;;;;7.18;4.00;;;20.00;99.90;;;;;;5081347;28;20191;-32
2022/11/01 00:24:23;;;;;;;9.23;3.58;;;20.00;99.90;;;;;;5087581;28;20283;-32
2022/11/01 00:26:53;;;;;;;7.53;3.90;;;20.00;99.90;;;;;;5085993;28;20692;-32
2022/11/01 00:29:20;;;;;;;11.43;4.47;;;20.00;99.90;;;;;;5084428;28;20191;-31
2022/11/01 00:31:47;;;;;;;6.28;4.00;;;20.00;99.90;;;;;;5087506;28;20199;-31
2022/11/01 00:34:15;;;;;;;10.02;3.67;;;19.90;99.90;;;;;;5095960;28;20226;-32
2022/11/01 00:36:43;;;;;;;6.85;3.63;;;19.90;99.90;;;;;;5091973;28;20221;-32
2022/11/01 00:39:13;;;;;;;10.65;3.83;;;19.90;99.90;;;;;;5095473;28;20555;-32
2022/11/01 00:41:45;;;;;;;7.28;4.10;;;19.90;99.90;;;;;;5086936;28;20204;-31
2022/11/01 00:44:12;;;;;;;8.45;4.03;;;19.90;99.90;;;;;;5092964;28;20672;-31
2022/11/01 00:46:39;;;;;;;5.43;3.58;;;19.90;99.90;;;;;;5099245;28;20210;-31
2022/11/01 00:49:06;;;;;;;9.13;3.83;;;19.90;99.90;;;;;;5098408;28;20202;-32
2022/11/01 00:51:33;;;;;;;5.40;3.50;;;19.90;99.90;;;;;;5098885;28;20218;-32
2022/11/01 00:54:03;;;;;;;8.25;3.95;;;19.90;99.90;;;;;;5090973;28;20202;-32
2022/11/01 00:56:30;;;;;;;5.53;3.20;;;19.90;99.90;;;;;;5094414;28;20218;-32
2022/11/01 00:58:59;;;;;;;6.20;3.70;;;19.90;99.90;;;;;;5087222;28;20522;-32
2022/11/01 01:01:26;;;;;;;8.55;3.35;;;19.90;99.90;;;;;;5095080;28;20503;-31
2022/11/01 01:03:54;;;;;;;5.55;3.83;;;19.90;99.90;;;;;;5090859;28;20306;-32
2022/11/01 01:06:21;;;;;;;6.38;3.55;;;19.90;99.90;;;;;;5105978;28;20198;-31
2022/11/01 01:08:48;;;;;;;6.63;3.67;;;19.90;99.90;;;;;;5099898;28;20217;-32
2022/11/01 01:11:15;;;;;;;5.00;3.05;;;19.90;99.90;;;;;;5097213;28;20210;-32
2022/11/01 01:13:42;;;;;;;4.78;3.53;;;20.00;99.90;;;;;;5097080;28;20248;-32
2022/11/01 01:16:11;;;;;;;5.05;3.10;;;19.90;99.90;;;;;;5101813;28;20218;-32
2022/11/01 01:18:40;;;;;;;10.65;3.38;;;20.00;99.90;;;;;;5100156;28;20324;-32
2022/11/01 01:21:08;;;;;;;7.72;3.33;;;20.00;99.90;;;;;;5101724;28;20249;-32
2022/11/01 01:23:35;;;;;;;12.32;4.15;;;20.00;99.90;;;;;;5094737;28;20431;-31
2022/11/01 01:26:09;;;;;;;7.80;3.30;;;20.00;99.90;;;;;;5098338;28;20219;-32
2022/11/01 01:28:37;;;;;;;6.07;3.05;;;20.00;99.90;;;;;;5088036;28;20584;-31
2022/11/01 01:31:14;;;;;;;7.57;3.15;;;20.00;99.90;;;;;;5088871;28;20202;-31
2022/11/01 01:33:41;;;;;;;6.38;2.97;;;20.00;99.90;;;;;;5086886;28;20448;-32
2022/11/01 01:36:08;;;;;;;6.53;3.28;;;20.00;99.90;;;;;;5098172;28;20240;-32
2022/11/01 01:38:35;;;;;;;7.35;3.22;;;20.00;99.90;;;;;;5092724;28;20205;-31
2022/11/01 01:43:51;;;;;;;6.13;3.05;;;20.00;99.90;;;;;;5090439;28;20742;-32
2022/11/01 01:46:18;;;;;;;6.32;3.20;;;20.00;99.90;;;;;;5087635;28;20783;-32
2022/11/01 01:48:51;;;;;;;9.90;3.33;;;20.10;99.90;;;;;;5094914;28;20201;-32
2022/11/01 01:51:25;;;;;;;7.35;3.28;;;20.10;99.90;;;;;;5088392;28;20221;-32
2022/11/01 01:53:54;;;;;;;7.35;3.25;;;20.10;99.90;;;;;;5100017;28;20228;-31
2022/11/01 01:56:29;;;;;;;6.78;3.13;;;20.10;99.90;;;;;;5084154;28;20226;-31
2022/11/01 01:59:02;;;;;;;8.05;3.35;;;20.10;99.90;;;;;;5088954;28;20198;-32
2022/11/01 02:01:31;;;;;;;7.80;3.08;;;20.10;99.90;;;;;;5097456;28;20198;-32
2022/11/01 02:03:58;;;;;;;10.57;3.22;;;20.10;99.90;;;;;;5091997;28;20207;-32
2022/11/01 02:06:26;;;;;;;6.20;3.13;;;20.10;99.90;;;;;;5095225;28;20221;-32
2022/11/01 02:08:56;;;;;;;6.38;2.90;;;20.10;99.90;;;;;;5092910;28;20337;-32
2022/11/01 02:11:23;;;;;;;8.20;3.30;;;20.10;99.90;;;;;;5087359;28;20691;-32
2022/11/01 02:13:50;;;;;;;10.75;3.15;;;20.00;99.90;;;;;;5093066;28;20199;-32
2022/11/01 02:16:45;;;;;;;10.18;2.80;;;20.00;99.90;;;;;;5094447;28;20438;-32
2022/11/01 02:19:52;;;;;;;6.43;2.63;;;20.00;99.90;;;;;;5094732;28;20537;-32
2022/11/01 02:22:52;;;;;;;3.22;2.10;;;19.90;99.90;;;;;;5085584;28;20198;-32
2022/11/01 02:25:25;;;;;;;7.32;2.80;;;19.90;99.90;;;;;;5085680;28;20218;-32
2022/11/01 02:28:36;;;;;;;3.97;1.92;;;19.80;99.90;;;;;;5085199;28;20230;-32
2022/11/01 02:31:28;;;;;;;5.25;1.40;;;19.70;99.90;;;;;;5076173;28;20210;-32
2022/11/01 02:34:20;;;;;;;3.40;1.60;;;19.60;99.90;;;;;;5088919;28;20294;-32
2022/11/01 02:36:55;;;;;;;4.80;1.58;;;19.60;99.90;;;;;;5095535;28;20272;-32
2022/11/01 02:39:32;;;;;;;3.65;1.40;;;19.50;99.90;;;;;;5093183;28;20541;-32
2022/11/01 02:42:05;;;;;;;3.88;1.50;;;19.40;99.90;;;;;;5084181;28;20226;-32
2022/11/01 02:44:36;;;;;;;3.42;1.17;;;19.40;99.90;;;;;;5097553;28;20684;-32
2022/11/01 02:47:07;;;;;;;2.45;1.20;;;19.30;99.90;;;;;;5100117;28;20197;-32
2022/11/01 02:49:41;;;;;;;3.17;0.90;;;19.30;99.90;;;;;;5092854;28;20198;-32
2022/11/01 02:52:13;;;;;;;1.73;1.08;;;19.20;99.90;;;;;;5082376;28;20222;-32
2022/11/01 02:54:48;;;;;;;2.03;1.00;;;19.20;99.90;;;;;;5092242;28;20199;-32
2022/11/01 02:57:19;;;;;;;3.85;1.20;;;19.10;99.90;;;;;;5087988;28;20210;-32
2022/11/01 02:59:47;;;;;;;3.83;1.13;;;19.10;99.90;;;;;;5091419;28;20201;-32
2022/11/01 03:02:40;;;;;;;1.90;1.10;;;19.10;99.90;;;;;;5096731;28;20207;-32
2022/11/01 03:05:17;;;;;;;8.35;1.08;;;19.10;99.90;;;;;;5085103;28;20215;-32
2022/11/01 03:07:53;;;;;;;3.00;1.20;;;19.00;99.90;;;;;;5093816;28;20190;-32
2022/11/01 03:10:25;;;;;;;4.20;1.50;;;18.90;99.90;;;;;;5092162;28;20284;-32
2022/11/01 03:13:06;;;;;;;6.47;1.10;;;18.90;99.90;;;;;;5095068;28;20688;-33
2022/11/01 03:15:38;;;;;;;1.00;1.00;;;18.80;99.90;;;;;;5094470;28;20336;-32
2022/11/01 03:18:17;;;;;;;2.00;1.02;;;18.70;99.90;;;;;;5098269;28;20190;-32
2022/11/01 03:20:58;;;;;;;2.67;0.80;;;18.70;99.90;;;;;;5090161;28;20230;-32
2022/11/01 03:23:36;;;;;;;3.40;0.90;;;18.60;99.90;;;;;;5100254;28;20217;-33
2022/11/01 03:26:10;;;;;;;2.78;0.75;;;18.60;99.90;;;;;;5091399;28;20202;-32
2022/11/01 03:28:41;;;;;;;3.17;0.90;;;18.60;99.90;;;;;;5088237;28;20229;-32
2022/11/01 03:31:18;;;;;;;1.65;0.80;;;18.50;99.90;;;;;;5084374;28;20233;-33
2022/11/01 03:33:50;;;;;;;1.58;0.70;;;18.50;99.90;;;;;;5087411;28;20770;-33
2022/11/01 03:36:24;;;;;;;3.45;1.00;;;18.50;99.90;;;;;;5090931;28;20320;-33
2022/11/01 03:39:02;;;;;;;2.70;0.80;;;18.50;99.90;;;;;;5095368;28;20564;-32
2022/11/01 03:41:34;;;;;;;2.67;0.80;;;18.40;99.90;;;;;;5086501;28;20199;-32
2022/11/01 03:44:03;;;;;;;2.10;0.73;;;18.30;99.90;;;;;;5094741;28;20636;-32
2022/11/01 03:46:33;;;;;;;2.38;0.70;;;18.30;99.90;;;;;;5085070;28;20310;-32
2022/11/01 03:49:00;;;;;;;1.17;0.60;;;18.20;99.90;;;;;;5081961;28;20565;-32
2022/11/01 03:51:27;;;;;;;2.83;0.82;;;18.20;99.90;;;;;;5087761;28;20198;-32
2022/11/01 03:53:54;;;;;;;2.58;0.80;;;18.10;99.90;;;;;;5095152;28;20217;-32
2022/11/01 03:56:21;;;;;;;1.65;0.60;;;18.10;99.90;;;;;;5082552;28;20225;-32
2022/11/01 03:58:49;;;;;;;2.53;0.82;;;18.00;99.90;;;;;;5084605;28;20191;-32
2022/11/01 04:01:19;;;;;;;3.08;0.77;;;17.90;99.90;;;;;;5086565;28;20219;-32
2022/11/01 04:03:46;;;;;;;2.43;0.67;;;17.90;99.90;;;;;;5089933;28;20191;-32
2022/11/01 04:06:13;;;;;;;0.97;0.67;;;17.80;99.90;;;;;;5095075;28;20197;-32
2022/11/01 04:08:40;;;;;;;1.50;0.57;;;17.80;99.90;;;;;;5098224;28;20209;-32
2022/11/01 04:11:08;;;;;;;2.73;0.80;;;17.80;99.90;;;;;;5083297;28;20718;-32
2022/11/01 04:13:35;;;;;;;3.65;0.88;;;17.70;99.90;;;;;;5087460;28;20201;-32
2022/11/01 04:21:34;;;;;;;5.27;0.80;;;17.60;99.90;;;;;;5084312;28;20291;-32
2022/11/01 04:24:01;;;;;;;2.53;0.80;;;17.50;99.90;;;;;;5090132;28;20211;-32
2022/11/01 04:26:28;;;;;;;2.27;0.90;;;17.40;99.90;;;;;;5088349;28;20201;-32
2022/11/01 04:28:58;;;;;;;2.73;1.00;;;17.40;99.90;;;;;;5099803;28;20214;-32
2022/11/01 04:31:28;;;;;;;4.00;1.13;;;17.40;99.90;;;;;;5082728;28;20248;-32
2022/11/01 04:33:56;;;;;;;1.57;0.60;;;17.30;99.90;;;;;;5086011;28;20976;-32
2022/11/01 04:36:24;;;;;;;1.53;0.73;;;17.30;99.90;;;;;;5088162;28;20572;-32
2022/11/01 04:38:56;;;;;;;2.05;0.63;;;17.20;99.90;;;;;;5096546;28;20202;-32
2022/11/01 04:41:24;;;;;;;3.10;0.80;;;17.20;99.90;;;;;;5096590;28;20195;-32
2022/11/01 04:43:53;;;;;;;6.10;0.90;;;17.20;99.90;;;;;;5094997;28;20737;-32
2022/11/01 04:46:21;;;;;;;6.93;1.10;;;17.10;99.90;;;;;;5091387;28;20211;-32
2022/11/01 04:48:48;;;;;;;7.80;0.90;;;17.10;99.90;;;;;;5098519;28;20724;-32
2022/11/01 04:51:15;;;;;;;3.33;0.73;;;17.10;99.90;;;;;;5085401;28;20380;-32
2022/11/01 04:53:43;;;;;;;3.83;0.80;;;17.00;99.90;;;;;;5086538;28;20219;-32
2022/11/01 04:56:12;;;;;;;2.80;0.83;;;17.00;99.90;;;;;;5086068;28;20218;-32
2022/11/01 04:58:39;;;;;;;5.90;0.80;;;16.90;99.90;;;;;;5087358;28;20203;-32
2022/11/01 05:01:13;;;;;;;2.73;0.83;;;16.90;99.90;;;;;;5090019;28;20214;-32
2022/11/01 05:03:41;;;;;;;4.63;1.10;;;16.90;99.90;;;;;;5093941;28;20614;-33
2022/11/01 05:06:09;;;;;;;4.40;0.80;;;16.90;99.90;;;;;;5094473;28;20283;-32
2022/11/01 05:08:36;;;;;;;3.73;0.90;;;16.80;99.90;;;;;;5103272;28;20209;-32
2022/11/01 05:11:03;;;;;;;3.07;0.70;;;16.80;99.90;;;;;;5102126;28;20372;-32
2022/11/01 05:13:31;;;;;;;2.20;0.60;;;16.80;99.90;;;;;;5096887;28;20696;-32
2022/11/01 05:16:03;;;;;;;2.27;0.60;;;16.70;99.90;;;;;;5094186;28;20895;-32
2022/11/01 05:18:47;;;;;;;4.70;0.80;;;16.70;99.90;;;;;;5089969;28;20235;-32
2022/11/01 05:21:17;;;;;;;3.50;0.93;;;16.70;99.90;;;;;;5084026;28;20239;-32
2022/11/01 05:23:46;;;;;;;3.97;0.83;;;16.60;99.90;;;;;;5085573;28;20190;-32
2022/11/01 05:26:16;;;;;;;3.83;0.80;;;16.60;99.90;;;;;;5102685;28;20750;-31
2022/11/01 05:28:43;;;;;;;3.57;0.60;;;16.50;99.90;;;;;;5091671;28;20918;-31
2022/11/01 05:31:10;;;;;;;2.47;0.80;;;16.50;99.90;;;;;;5091753;28;20211;-32
2022/11/01 05:33:37;;;;;;;4.67;0.93;;;16.40;99.90;;;;;;5090013;28;20595;-31
2022/11/01 05:36:07;;;;;;;4.80;0.93;;;16.30;99.90;;;;;;5093141;28;20206;-31
2022/11/01 05:38:34;;;;;;;2.80;0.67;;;16.30;99.90;;;;;;5093897;28;20195;-32
2022/11/01 05:41:02;;;;;;;3.73;0.70;;;16.30;99.90;;;;;;5102061;28;20586;-31
2022/11/01 05:43:30;;;;;;;4.77;1.00;;;16.30;99.90;;;;;;5086216;28;20465;-32
2022/11/01 05:45:57;;;;;;;6.07;0.80;;;16.20;99.90;;;;;;5087488;28;20205;-32
2022/11/01 05:48:24;;;;;;;4.60;0.90;;;16.20;99.90;;;;;;5089004;27;20225;-32
2022/11/01 05:50:51;;;;;;;2.77;0.80;;;16.20;99.90;;;;;;5096535;28;20717;-32
2022/11/01 05:53:18;;;;;;;3.30;0.73;;;16.10;99.90;;;;;;5095649;28;20221;-32
2022/11/01 05:55:47;;;;;;;7.43;0.83;;;16.10;99.90;;;;;;5096255;28;20807;-32
2022/11/01 05:58:14;;;;;;;6.90;1.10;;;16.00;99.90;;;;;;5094992;28;20222;-32
2022/11/01 06:00:42;;;;;;;2.93;0.93;;;16.00;99.90;;;;;;5090471;28;20194;-32
2022/11/01 06:03:09;;;;;;;4.63;0.93;;;16.00;99.90;;;;;;5089500;28;20285;-32
2022/11/01 06:05:37;;;;;;;4.67;0.90;;;15.90;99.90;;;;;;5096076;28;20198;-32
2022/11/01 06:08:05;;;;;;;2.63;0.90;;;15.90;99.90;;;;;;5086357;28;20198;-32
2022/11/01 06:10:33;;;;;;;6.27;0.70;;;15.80;99.90;;;;;;5095218;28;20513;-32
2022/11/01 06:13:00;;;;;;;5.17;0.90;;;15.80;99.90;;;;;;5097065;28;20219;-32
2022/11/01 06:15:28;;;;;;;7.37;1.00;;;15.70;99.90;;;;;;5089424;28;20680;-35
2022/11/01 06:17:58;;;;;;;4.43;1.10;;;15.70;99.90;;;;;;5092796;28;20206;-35
2022/11/01 06:20:28;;;;;;;4.90;0.90;;;15.70;99.90;;;;;;5089113;28;20723;-34
2022/11/01 06:22:56;;;;;;;8.87;1.30;;;15.60;99.90;;;;;;5088629;28;20631;-32
2022/11/01 06:25:25;;;;;;;5.43;1.10;;;15.60;99.90;;;;;;5094270;28;20186;-32
2022/11/01 06:27:53;;;;;;;5.70;1.00;;;15.50;99.90;;;;;;5084132;28;20305;-32
2022/11/01 06:30:20;;;;;;;8.17;1.23;;;15.50;99.90;;;;;;5091112;28;20700;-33
2022/11/01 06:32:47;;;;;;;7.37;1.20;;;15.50;99.90;;;;;;5088937;28;20205;-31
2022/11/01 06:35:14;;;;;;;9.67;1.57;;;15.40;99.90;;;;;;5092828;28;20210;-33
2022/11/01 06:37:45;;;;;;;5.57;1.10;;;15.40;99.90;;;;;;5086215;28;20314;-32
2022/11/01 06:40:12;;;;;;;8.83;1.30;;;15.30;99.90;;;;;;5084798;28;20302;-32
2022/11/01 06:42:40;;;;;;;9.80;1.40;;;15.30;99.90;;;;;;5091836;28;20199;-32
2022/11/01 06:45:13;;;;;;;5.03;1.33;;;15.20;99.90;;;;;;5085147;28;20199;-32
2022/11/01 06:47:45;;;;;;;5.83;1.30;;;15.20;99.90;;;;;;5091334;28;20202;-32
2022/11/01 06:50:12;;;;;;;7.33;1.70;;;15.20;99.90;;;;;;5085830;28;20657;-32
2022/11/01 06:52:42;;;;;;;7.20;1.30;;;15.10;99.90;;;;;;5084159;28;20662;-33
2022/11/01 06:55:09;;;;;;;7.43;1.30;;;15.10;99.90;;;;;;5098997;28;20204;-32
2022/11/01 06:57:36;;;;;;;5.57;1.33;;;15.00;99.90;;;;;;5095697;28;20224;-32
2022/11/01 07:00:04;;;;;;;8.47;1.90;;;15.00;99.90;;;;;;5102863;28;20912;-32
2022/11/01 07:02:31;;;;;;;5.77;1.40;;;15.20;99.90;;;;;;5091745;28;20228;-32
2022/11/01 07:04:59;;;;;;;5.80;1.40;;;15.10;99.90;;;;;;5088514;28;20210;-32
2022/11/01 07:07:26;;;;;;;5.80;1.30;;;15.10;99.90;;;;;;5096580;28;20683;-32
2022/11/01 07:09:53;;;;;;;11.10;1.63;;;15.00;99.90;;;;;;5087782;28;20229;-32
2022/11/01 07:12:20;;;;;;;7.40;1.20;;;15.00;99.90;;;;;;5100298;28;20208;-34
2022/11/01 07:14:47;;;;;;;7.90;1.40;;;15.00;99.90;;;;;;5096192;28;20194;-32
2022/11/01 07:17:14;;;;;;;5.80;1.43;;;15.00;99.90;;;;;;5092720;28;20230;-32
2022/11/01 07:19:41;;;;;;;8.50;1.50;;;14.90;99.90;;;;;;5103491;28;20233;-32
2022/11/01 07:22:08;;;;;;;4.77;1.47;;;14.90;99.90;;;;;;5098371;28;20191;-32
2022/11/01 07:24:35;;;;;;;7.07;1.20;;;14.90;99.90;;;;;;5096512;28;20199;-32
2022/11/01 07:27:03;;;;;;;10.30;1.53;;;14.90;99.90;;;;;;5096053;28;20210;-32
2022/11/01 07:29:32;;;;;;;4.60;1.27;;;14.90;99.90;;;;;;5099537;28;20259;-32
2022/11/01 07:32:01;;;;;;;10.47;1.40;;;14.80;99.90;;;;;;5098292;28;20251;-33
2022/11/01 07:34:33;;;;;;;5.10;1.27;;;14.90;99.90;;;;;;5093020;28;20626;-32
2022/11/01 07:37:03;;;;;;;6.57;1.23;;;14.90;99.90;;;;;;5093908;28;20750;-32
2022/11/01 07:39:30;;;;;;;5.27;1.27;;;14.90;99.90;;;;;;5096808;28;20226;-32
2022/11/01 07:41:58;;;;;;;6.83;1.13;;;14.90;99.90;;;;;;5093377;28;20203;-32
2022/11/01 07:44:25;;;;;;;4.93;1.17;;;14.90;99.90;;;;;;5085862;28;20679;-32
2022/11/01 07:46:52;;;;;;;5.73;1.47;;;14.90;99.90;;;;;;5087301;28;20236;-32
2022/11/01 07:49:19;;;;;;;6.83;1.23;;;14.90;99.90;;;;;;5096458;28;20191;-32
2022/11/01 07:51:46;;;;;;;6.50;1.30;;;14.90;99.90;;;;;;5083701;28;20219;-32
2022/11/01 07:54:13;;;;;;;8.20;1.83;;;14.90;99.90;;;;;;5097808;28;20414;-32
2022/11/01 07:56:40;;;;;;;5.97;1.40;;;14.90;99.90;;;;;;5083635;28;20294;-32
2022/11/01 07:59:08;;;;;;;7.27;1.53;;;14.90;99.90;;;;;;5082775;28;20207;-32
2022/11/01 08:01:35;;;;;;;5.07;1.30;;;14.90;99.90;;;;;;5090616;28;20244;-32
2022/11/01 08:04:03;;;;;;;10.30;1.90;;;14.90;99.90;;;;;;5083236;28;20195;-32
2022/11/01 08:06:30;;;;;;;7.87;1.43;;;14.90;99.90;;;;;;5093753;28;20318;-32
2022/11/01 08:08:57;;;;;;;8.07;1.50;;;14.90;99.90;;;;;;5093075;28;20271;-32
2022/11/01 08:11:24;;;;;;;9.27;1.43;;;14.90;99.90;;;;;;5102492;28;20190;-32
2022/11/01 08:13:51;;;;;;;10.60;1.97;;;14.90;99.90;;;;;;5089488;28;20195;-32
2022/11/01 08:16:19;;;;;;;5.30;1.50;;;15.00;99.90;;;;;;5090638;28;20293;-32
2022/11/01 08:18:46;;;;;;;7.70;1.43;;;15.00;99.90;;;;;;5102633;28;20218;-32
2022/11/01 08:21:17;;;;;;;8.07;1.30;;;15.00;99.90;;;;;;5106382;28;20288;-32
2022/11/01 08:23:47;;;;;;;8.70;1.70;;;15.10;99.90;;;;;;5097152;28;20584;-32
2022/11/01 08:26:15;;;;;;;5.83;1.10;;;15.10;99.90;;;;;;5090663;28;20195;-32
2022/11/01 08:28:42;;;;;;;6.43;1.10;;;15.10;99.90;;;;;;5094481;28;20219;-32
2022/11/01 08:31:11;;;;;;;14.63;2.17;;;15.10;99.90;;;;;;5094280;28;20206;-32
2022/11/01 08:33:40;;;;;;;12.30;1.67;;;15.10;99.90;;;;;;5099668;28;20233;-32
2022/11/01 08:36:08;;;;;;;7.27;1.30;;;15.10;99.90;;;;;;5088811;28;20707;-32
2022/11/01 08:38:35;;;;;;;8.53;1.77;;;15.10;99.90;;;;;;5088760;28;20226;-32
2022/11/01 08:41:02;;;;;;;12.00;1.90;;;15.10;99.90;;;;;;5091444;28;20321;-32
2022/11/01 08:43:29;;;;;;;11.93;1.70;;;15.10;99.90;;;;;;5095738;28;20219;-32
2022/11/01 08:45:58;;;;;;;8.80;1.80;;;15.10;99.90;;;;;;5102400;28;20297;-32
2022/11/01 08:48:26;;;;;;;7.97;2.07;;;15.10;99.90;;;;;;5087241;28;20203;-32
2022/11/01 08:50:55;;;;;;;8.47;1.97;;;15.20;99.90;;;;;;5087049;28;20289;-32
2022/11/01 08:53:23;;;;;;;10.60;2.17;;;15.20;99.90;;;;;;5086661;28;20317;-32
2022/11/01 08:55:54;;;;;;;9.50;1.63;;;15.30;99.90;;;;;;5106951;28;20759;-32
2022/11/01 08:58:22;;;;;;;6.63;1.67;;;15.30;99.90;;;;;;5107215;27;20302;-32
2022/11/01 09:00:51;;;;;;;5.43;1.40;;;15.40;99.90;;;;;;5096548;28;20207;-32
2022/11/01 09:03:18;;;;;;;7.93;1.50;;;15.40;99.90;;;;;;5089838;28;20218;-32
2022/11/01 09:05:45;;;;;;;9.37;1.67;;;15.40;99.90;;;;;;5106715;28;20206;-32
2022/11/01 09:08:12;;;;;;;6.57;1.80;;;15.40;99.90;;;;;;5093423;28;20272;-32
2022/11/01 09:10:42;;;;;;;11.77;2.17;;;15.50;99.90;;;;;;5092573;28;20214;-32
2022/11/01 09:13:09;;;;;;;9.67;1.80;;;15.50;99.90;;;;;;5086310;28;20210;-32
2022/11/01 09:15:37;;;;;;;10.37;2.30;;;15.50;99.90;;;;;;5084806;28;20513;-32
2022/11/01 09:18:06;;;;;;;10.83;1.80;;;15.60;99.90;;;;;;5093171;28;20581;-32
2022/11/01 09:20:33;;;;;;;9.73;2.00;;;15.60;99.90;;;;;;5083428;28;20230;-32
2022/11/01 09:23:02;;;;;;;10.20;1.97;;;15.60;99.90;;;;;;5095573;28;20753;-32
2022/11/01 09:25:30;;;;;;;6.30;1.83;;;15.70;99.90;;;;;;5094732;28;20498;-32
2022/11/01 09:28:00;;;;;;;7.93;1.73;;;15.70;99.90;;;;;;5101376;28;20219;-32
2022/11/01 09:30:29;;;;;;;10.97;2.10;;;15.70;99.90;;;;;;5088507;28;20290;-33
2022/11/01 09:33:02;;;;;;;13.30;1.97;;;15.70;99.90;;;;;;5099125;28;20267;-32
2022/11/01 09:35:30;;;;;;;8.23;1.70;;;15.70;99.90;;;;;;5086853;28;20319;-32
2022/11/01 09:38:00;;;;;;;8.17;1.63;;;15.70;99.90;;;;;;5092720;28;20716;-32
2022/11/01 09:40:39;;;;;;;11.37;2.13;;;15.70;99.90;;;;;;5088779;28;20199;-32
2022/11/01 09:43:10;;;;;;;9.40;1.83;;;15.80;99.90;;;;;;5089716;28;20613;-32
2022/11/01 09:45:37;;;;;;;13.30;1.73;;;15.90;99.90;;;;;;5088577;28;20295;-32
2022/11/01 09:48:06;;;;;;;12.97;1.83;;;15.90;99.90;;;;;;5085800;28;20226;-32
2022/11/01 09:50:38;;;;;;;4.90;1.90;;;15.90;99.90;;;;;;5089839;28;20614;-32
2022/11/01 09:53:17;;;;;;;10.27;1.73;;;16.00;99.90;;;;;;5097714;28;20279;-32
2022/11/01 09:55:56;;;;;;;12.20;2.13;;;16.00;99.90;;;;;;5093213;28;20295;-32
2022/11/01 09:58:35;;;;;;;6.93;1.50;;;16.00;99.90;;;;;;5094002;28;20210;-32
2022/11/01 10:01:11;;;;;;;6.23;1.60;;;16.00;99.90;;;;;;5086867;28;20289;-32
2022/11/01 10:03:57;;;;;;;9.77;1.63;;;16.10;99.90;;;;;;5090230;28;20198;-32
2022/11/01 10:06:37;;;;;;;8.97;1.33;;;16.10;99.90;;;;;;5098024;28;20210;-33
2022/11/01 10:09:34;;;;;;;7.13;1.57;;;16.20;99.90;;;;;;5097438;28;20194;-34
2022/11/01 10:12:14;;;;;;;7.57;1.90;;;16.20;99.90;;;;;;5101265;28;20684;-35
2022/11/01 10:14:53;;;;;;;8.30;1.60;;;16.30;99.90;;;;;;5087992;28;20209;-33
2022/11/01 10:17:50;;;;;;;8.83;1.70;;;16.30;99.90;;;;;;5093508;27;20221;-32
2022/11/01 10:20:27;;;;;;;7.63;1.40;;;16.30;99.90;;;;;;5083300;28;20316;-33
2022/11/01 10:22:55;;;;;;;11.37;2.03;;;16.30;99.90;;;;;;5090849;28;20229;-32
2022/11/01 10:25:27;;;;;;;9.60;1.90;;;16.40;99.90;;;;;;5085042;28;20283;-33
2022/11/01 10:28:14;;;;;;;5.27;1.47;;;16.40;99.90;;;;;;5096445;27;20194;-34
2022/11/01 10:30:55;;;;;;;12.30;1.70;;;16.40;99.90;;;;;;5084159;28;20230;-33
2022/11/01 10:33:36;;;;;;;7.97;1.60;;;16.40;99.90;;;;;;5088085;28;20630;-32
2022/11/01 10:36:11;;;;;;;14.37;1.87;;;16.50;99.90;;;;;;5097988;27;20229;-32
2022/11/01 10:38:42;;;;;;;6.40;1.60;;;16.50;99.90;;;;;;5089105;28;20214;-32
2022/11/01 10:41:41;;;;;;;7.43;1.20;;;16.50;99.90;;;;;;5093345;28;20248;-33
2022/11/01 10:44:32;;;;;;;6.03;1.63;;;16.60;99.90;;;;;;5088994;28;20256;-33
2022/11/01 10:47:03;;;;;;;11.07;1.80;;;16.60;99.90;;;;;;5085151;28;20201;-33
2022/11/01 10:49:35;;;;;;;6.53;1.40;;;16.70;99.90;;;;;;5085174;28;20687;-35
2022/11/01 10:52:30;;;;;;;6.80;1.53;;;16.70;99.90;;;;;;5094625;28;20225;-33
2022/11/01 10:55:00;;;;;;;7.37;1.77;;;16.70;99.90;;;;;;5086812;28;20293;-33
2022/11/01 10:57:38;;;;;;;11.83;1.80;;;16.80;99.90;;;;;;5085049;28;20226;-33
2022/11/01 11:00:13;;;;;;;6.10;1.37;;;16.80;99.90;;;;;;5090453;28;20232;-33
2022/11/01 11:02:57;;;;;;;4.13;1.30;;;16.80;99.90;;;;;;5086395;28;20669;-33
2022/11/01 11:05:28;;;;;;;7.10;1.10;;;16.90;99.90;;;;;;5087963;28;20213;-33
2022/11/01 11:07:56;;;;;;;4.93;1.40;;;16.90;99.90;;;;;;5084643;28;20207;-33
2022/11/01 11:10:26;;;;;;;7.43;1.50;;;17.00;99.90;;;;;;5083162;28;20226;-33
2022/11/01 11:13:04;;;;;;;4.83;1.17;;;17.00;99.90;;;;;;5088187;28;20677;-33
2022/11/01 11:15:55;;;;;;;5.67;1.00;;;17.00;99.90;;;;;;5082690;28;20286;-33
2022/11/01 11:18:58;;;;;;;9.50;1.70;;;17.10;99.90;;;;;;5086485;28;20225;-33
2022/11/01 11:21:25;;;;;;;5.73;1.40;;;17.10;99.90;;;;;;5084177;28;20415;-33
2022/11/01 11:23:54;;;;;;;8.27;2.40;;;17.10;99.90;;;;;;5092267;28;20695;-34
2022/11/01 11:26:25;;;;;;;7.93;1.73;;;17.20;99.90;;;;;;5085910;28;20705;-33
2022/11/01 11:28:58;;;;;;;9.27;1.40;;;17.20;99.90;;;;;;5087133;28;20216;-33
2022/11/01 11:31:33;;;;;;;10.13;1.47;;;17.20;99.90;;;;;;5091493;28;20203;-33
2022/11/01 11:34:20;;;;;;;7.83;1.23;;;17.30;99.90;;;;;;5087869;28;20671;-33
2022/11/01 11:36:53;;;;;;;6.47;1.50;;;17.40;99.90;;;;;;5083028;28;20471;-33
2022/11/01 11:39:30;;;;;;;9.17;1.83;;;17.40;99.90;;;;;;5085800;28;20313;-33
2022/11/01 11:42:17;;;;;;;10.70;1.63;;;17.40;99.90;;;;;;5086997;28;20734;-32
2022/11/01 11:44:52;;;;;;;8.10;1.50;;;17.40;99.90;;;;;;5083293;28;20198;-33
2022/11/01 11:47:33;;;;;;;10.57;2.00;;;17.50;99.90;;;;;;5088876;28;20198;-33
2022/11/01 11:50:17;;;;;;;6.70;1.63;;;17.40;99.90;;;;;;5084803;28;20734;-33
2022/11/01 11:52:48;;;;;;;7.10;1.60;;;17.50;99.90;;;;;;5084164;28;20641;-32
2022/11/01 11:55:40;;;;;;;7.63;1.70;;;17.50;99.90;;;;;;5087427;28;20632;-32
2022/11/01 11:58:42;;;;;;;7.87;1.63;;;17.50;99.90;;;;;;5089518;28;20219;-33
2022/11/01 12:01:14;;;;;;;6.87;1.50;;;17.60;99.90;;;;;;5086098;28;20581;-33
2022/11/01 12:03:53;;;;;;;7.07;1.30;;;17.60;99.90;;;;;;5087265;28;20263;-33
2022/11/01 12:06:22;;;;;;;7.95;1.70;;;17.60;99.90;;;;;;5084204;28;20198;-33
2022/11/01 12:08:58;;;;;;;6.37;1.50;;;17.60;99.90;;;;;;5088582;28;20233;-32
2022/11/01 12:11:40;;;;;;;5.53;1.57;;;17.70;99.90;;;;;;5086222;28;20779;-33
2022/11/01 12:14:24;;;;;;;10.10;1.40;;;17.70;99.90;;;;;;5101421;28;20395;-32
2022/11/01 12:16:51;;;;;;;8.17;1.13;;;17.70;99.90;;;;;;5096113;28;20232;-33
2022/11/01 12:19:29;;;;;;;7.93;1.48;;;17.80;99.90;;;;;;5097525;28;20213;-33
2022/11/01 12:22:02;;;;;;;7.90;1.47;;;17.80;99.90;;;;;;5101234;28;20592;-33
2022/11/01 12:24:52;;;;;;;5.27;1.40;;;17.80;99.90;;;;;;5093844;28;20391;-33
2022/11/01 12:27:26;;;;;;;5.53;1.40;;;17.80;99.90;;;;;;5083815;28;20291;-33
2022/11/01 12:29:54;;;;;;;6.20;1.30;;;17.90;99.90;;;;;;5096723;28;20206;-33
2022/11/01 12:32:29;;;;;;;4.77;1.10;;;17.90;99.90;;;;;;5090295;28;20207;-33
2022/11/01 12:35:01;;;;;;;8.17;1.20;;;17.90;99.90;;;;;;5085444;28;20238;-33
2022/11/01 12:37:50;;;;;;;7.20;1.10;;;18.00;99.90;;;;;;5082605;28;20198;-33
2022/11/01 12:40:22;;;;;;;8.15;1.50;;;18.00;99.90;;;;;;5085256;28;20246;-33
2022/11/01 12:42:56;;;;;;;5.20;1.20;;;18.00;99.90;;;;;;5083718;28;20248;-33
2022/11/01 12:45:33;;;;;;;8.60;1.53;;;18.00;99.90;;;;;;5095096;28;20241;-33
2022/11/01 12:48:07;;;;;;;10.83;1.53;;;18.10;99.90;;;;;;5086247;28;20213;-33
2022/11/01 12:50:49;;;;;;;8.67;1.67;;;18.00;99.90;;;;;;5087998;28;20206;-33
2022/11/01 12:53:22;;;;;;;7.53;1.33;;;18.10;99.90;;;;;;5082333;28;20352;-33
2022/11/01 12:55:49;;;;;;;8.27;1.47;;;18.10;99.90;;;;;;5085428;28;20320;-33
2022/11/01 12:58:18;;;;;;;6.87;1.40;;;18.10;99.90;;;;;;5079990;28;20211;-33
2022/11/01 13:01:07;;;;;;;7.67;1.20;;;18.10;99.90;;;;;;5088616;28;20676;-33
2022/11/01 13:03:59;;;;;;;7.20;1.33;;;18.20;99.90;;;;;;5093420;28;20194;-33
2022/11/01 13:06:45;;;;;;;10.52;1.50;;;18.20;99.90;;;;;;5089727;28;20260;-33
2022/11/01 13:09:24;;;;;;;13.17;1.87;;;18.10;99.90;;;;;;5086352;28;20242;-32
2022/11/01 13:12:30;;;;;;;4.72;1.48;;;18.10;99.90;;;;;;5086410;28;20301;-32
2022/11/01 13:15:23;;;;;;;6.00;1.40;;;18.20;99.90;;;;;;5086856;28;20197;-32
2022/11/01 13:17:59;;;;;;;8.30;1.50;;;18.20;99.90;;;;;;5078308;28;20225;-32
2022/11/01 13:20:42;;;;;;;7.50;1.80;;;18.10;99.90;;;;;;5086616;28;20650;-32